createdAt,value
2022-10-02T00:00:31.599Z,100647.69
2022-10-02T00:03:14.259Z,100652.09
2022-10-02T00:05:59.002Z,100651.19
2022-10-02T00:08:45.408Z,100660.88
2022-10-02T00:11:19.326Z,100655.50
2022-10-02T00:13:51.855Z,100654.56
2022-10-02T00:16:41.249Z,100649.22
2022-10-02T00:19:18.596Z,100655.38
2022-10-02T00:22:14.264Z,100653.56
2022-10-02T00:24:47.323Z,100649.13
2022-10-02T00:27:38.746Z,100650.84
2022-10-02T00:30:06.138Z,100652.59
2022-10-02T00:32:51.064Z,100649.88
2022-10-02T00:35:24.422Z,100659.66
2022-10-02T00:38:03.685Z,100669.41
2022-10-02T00:41:02.139Z,100664.03
2022-10-02T00:43:56.898Z,100653.44
2022-10-02T00:46:35.344Z,100662.31
2022-10-02T00:49:12.422Z,100663.19
2022-10-02T00:51:55.630Z,100660.53
2022-10-02T00:54:51.130Z,100669.41
2022-10-02T00:57:29.891Z,100671.13
2022-10-02T01:00:06.032Z,100676.44
2022-10-02T01:02:58.699Z,100701.22
2022-10-02T01:05:27.255Z,100725.22
2022-10-02T01:07:55.161Z,100728.78
2022-10-02T01:10:25.415Z,100702.16
2022-10-02T01:12:56.045Z,100693.25
2022-10-02T01:15:28.105Z,100686.97
2022-10-02T01:17:55.318Z,100686.00
2022-10-02T01:20:34.644Z,100678.88
2022-10-02T01:23:08.640Z,100673.53
2022-10-02T01:25:35.733Z,100688.63
2022-10-02T01:28:02.532Z,100678.88
2022-10-02T01:30:29.921Z,100682.47
2022-10-02T01:32:58.859Z,100685.19
2022-10-02T01:35:31.549Z,100681.66
2022-10-02T01:37:59.751Z,100684.31
2022-10-02T01:40:31.918Z,100679.94
2022-10-02T01:43:09.047Z,100685.31
2022-10-02T01:45:54.268Z,100689.81
2022-10-02T01:48:42.630Z,100688.94
2022-10-02T01:51:21.821Z,100689.00
2022-10-02T01:53:58.816Z,100688.16
2022-10-02T01:56:43.431Z,100692.59
2022-10-02T01:59:16.690Z,100699.75
2022-10-02T02:02:03.753Z,100696.25
2022-10-02T02:05:03.730Z,100687.44
2022-10-02T02:07:58.468Z,100691.88
2022-10-02T02:10:45.082Z,100699.91
2022-10-02T02:13:26.606Z,100699.06
2022-10-02T02:16:23.018Z,100704.41
2022-10-02T02:18:52.930Z,100700.00
2022-10-02T02:21:46.629Z,100703.56
2022-10-02T02:24:25.762Z,100706.22
2022-10-02T02:26:55.505Z,100714.25
2022-10-02T02:29:23.886Z,100700.06
2022-10-02T02:31:58.062Z,100705.38
2022-10-02T02:34:46.680Z,100705.38
2022-10-02T02:37:19.057Z,100698.34
2022-10-02T02:39:46.867Z,100698.34
2022-10-02T02:42:17.780Z,100698.34
2022-10-02T02:45:04.742Z,100693.06
2022-10-02T02:47:42.102Z,100703.72
2022-10-02T02:50:20.951Z,100693.97
2022-10-02T02:52:58.487Z,100705.50
2022-10-02T02:55:31.291Z,100709.06
2022-10-02T02:58:24.387Z,100715.28
2022-10-02T03:00:51.109Z,100708.19
2022-10-02T03:03:18.097Z,100708.22
2022-10-02T03:05:48.141Z,100709.06
2022-10-02T03:08:29.124Z,100716.22
2022-10-02T03:11:19.080Z,100718.00
2022-10-02T03:13:51.833Z,100728.63
2022-10-02T03:16:22.146Z,100727.78
2022-10-02T03:18:51.837Z,100720.69
2022-10-02T03:21:35.724Z,100728.66
2022-10-02T03:24:17.649Z,100718.97
2022-10-02T03:26:53.752Z,100724.28
2022-10-02T03:29:26.646Z,100728.69
2022-10-02T03:31:54.143Z,100718.03
2022-10-02T03:34:21.296Z,100717.16
2022-10-02T03:36:48.050Z,100724.28
2022-10-02T03:39:30.215Z,100718.97
2022-10-02T03:41:57.020Z,100717.19
2022-10-02T03:44:23.959Z,100715.47
2022-10-02T03:46:50.776Z,100719.00
2022-10-02T03:49:17.575Z,100719.94
2022-10-02T03:51:44.396Z,100719.06
2022-10-02T03:54:17.913Z,100720.81
2022-10-02T03:56:56.739Z,100719.94
2022-10-02T03:59:40.430Z,100718.16
2022-10-02T04:02:13.380Z,100722.59
2022-10-02T04:04:49.981Z,100719.94
2022-10-02T04:07:22.924Z,100714.63
2022-10-02T04:10:22.101Z,100717.25
2022-10-02T04:12:51.052Z,100711.03
2022-10-02T04:15:23.578Z,100711.00
2022-10-02T04:17:58.931Z,100709.22
2022-10-02T04:20:31.660Z,100718.97
2022-10-02T04:23:05.415Z,100721.63
2022-10-02T04:25:39.485Z,100723.41
2022-10-02T04:28:08.309Z,100731.34
2022-10-02T04:30:35.080Z,100726.03
2022-10-02T04:33:12.433Z,100732.25
2022-10-02T04:36:02.684Z,100737.56
2022-10-02T04:38:45.613Z,100735.75
2022-10-02T04:41:47.073Z,100730.44
2022-10-02T04:44:36.597Z,100737.56
2022-10-02T04:47:14.208Z,100748.16
2022-10-02T04:49:54.656Z,100736.63
2022-10-02T04:52:35.167Z,100737.47
2022-10-02T04:55:23.563Z,100739.25
2022-10-02T04:58:08.492Z,100745.41
2022-10-02T05:00:57.920Z,100748.03
2022-10-02T05:03:58.724Z,100750.63
2022-10-02T05:06:54.884Z,100751.47
2022-10-02T05:09:28.422Z,100756.75
2022-10-02T05:12:39.367Z,100765.56
2022-10-02T05:15:15.572Z,100754.03
2022-10-02T05:18:14.586Z,100761.97
2022-10-02T05:21:02.500Z,100754.84
2022-10-02T05:23:50.996Z,100754.78
2022-10-02T05:26:38.720Z,100750.34
2022-10-02T05:29:24.045Z,100752.06
2022-10-02T05:32:07.571Z,100744.97
2022-10-02T05:34:45.477Z,100763.59
2022-10-02T05:37:27.384Z,100760.06
2022-10-02T05:40:17.825Z,100760.94
2022-10-02T05:42:52.261Z,100755.66
2022-10-02T05:45:27.465Z,100768.94
2022-10-02T05:48:03.604Z,100774.25
2022-10-02T05:50:34.868Z,100776.03
2022-10-02T05:53:35.409Z,100773.31
2022-10-02T05:56:09.140Z,100774.19
2022-10-02T05:58:48.368Z,100772.41
2022-10-02T06:01:23.362Z,100783.06
2022-10-02T06:04:13.531Z,100777.72
2022-10-02T06:06:51.623Z,100787.50
2022-10-02T06:09:22.961Z,100787.44
2022-10-02T06:11:59.921Z,100784.72
2022-10-02T06:14:47.327Z,100783.75
2022-10-02T06:17:43.538Z,100780.97
2022-10-02T06:20:21.066Z,100780.03
2022-10-02T06:22:59.355Z,100784.44
2022-10-02T06:25:31.083Z,100787.06
2022-10-02T06:28:02.810Z,100781.69
2022-10-02T06:30:32.981Z,100776.31
2022-10-02T06:33:09.853Z,100783.34
2022-10-02T06:35:58.600Z,100768.19
2022-10-02T06:38:45.208Z,100780.59
2022-10-02T06:41:20.543Z,100774.41
2022-10-02T06:44:05.413Z,100784.16
2022-10-02T06:46:43.017Z,100803.66
2022-10-02T06:49:46.420Z,100799.94
2022-10-02T06:52:38.336Z,100798.03
2022-10-02T06:55:35.560Z,100798.78
2022-10-02T06:58:13.481Z,100793.38
2022-10-02T07:00:48.475Z,100786.22
2022-10-02T07:03:28.816Z,100783.56
2022-10-02T07:06:25.968Z,100792.47
2022-10-02T07:09:15.094Z,100797.84
2022-10-02T07:11:53.928Z,100790.66
2022-10-02T07:14:42.551Z,100791.34
2022-10-02T07:17:22.447Z,100795.56
2022-10-02T07:20:03.789Z,100799.72
2022-10-02T07:23:15.092Z,100804.53
2022-10-02T07:26:10.496Z,100799.50
2022-10-02T07:29:06.467Z,100797.25
2022-10-02T07:31:55.952Z,100796.56
2022-10-02T07:34:40.642Z,100803.94
2022-10-02T07:37:41.088Z,100805.88
2022-10-02T07:40:29.623Z,100822.47
2022-10-02T07:43:06.255Z,100826.06
2022-10-02T07:45:37.326Z,100823.47
2022-10-02T07:48:22.204Z,100821.81
2022-10-02T07:51:06.283Z,100830.03
2022-10-02T07:53:49.815Z,100835.63
2022-10-02T07:56:21.708Z,100840.22
2022-10-02T07:59:00.707Z,100835.94
2022-10-02T08:01:50.998Z,100845.81
2022-10-02T08:04:24.636Z,100838.69
2022-10-02T08:06:54.846Z,100845.81
2022-10-02T08:09:45.954Z,100842.19
2022-10-02T08:12:40.953Z,100847.53
2022-10-02T08:15:22.412Z,100851.06
2022-10-02T08:18:29.910Z,100854.56
2022-10-02T08:20:54.213Z,100852.75
2022-10-02T08:23:21.066Z,100860.66
2022-10-02T08:26:07.308Z,100852.56
2022-10-02T08:28:49.288Z,100859.69
2022-10-02T08:31:16.224Z,100863.25
2022-10-02T08:33:45.819Z,100864.94
2022-10-02T08:36:28.534Z,100858.56
2022-10-02T08:39:00.670Z,100852.19
2022-10-02T08:42:04.409Z,100861.84
2022-10-02T08:44:49.048Z,100872.28
2022-10-02T08:47:30.086Z,100873.09
2022-10-02T08:50:21.986Z,100877.56
2022-10-02T08:52:54.122Z,100878.44
2022-10-02T08:55:50.368Z,100873.09
2022-10-02T08:58:45.058Z,100877.66
2022-10-02T09:01:27.185Z,100885.81
2022-10-02T09:04:16.208Z,100876.97
2022-10-02T09:07:30.700Z,100880.47
2022-10-02T09:10:42.521Z,100877.56
2022-10-02T09:13:41.239Z,100871.09
2022-10-02T09:19:19.279Z,100877.94
2022-10-02T09:22:01.740Z,100876.13
2022-10-02T09:24:55.480Z,100874.28
2022-10-02T09:27:37.808Z,100880.47
2022-10-02T09:30:21.179Z,100881.41
2022-10-02T09:33:20.610Z,100877.84
2022-10-02T09:38:58.434Z,100879.63
2022-10-02T09:41:47.179Z,100886.66
2022-10-02T09:47:48.495Z,100896.25
2022-10-02T09:50:30.392Z,100888.09
2022-10-02T09:53:23.382Z,100880.84
2022-10-02T09:56:22.270Z,100892.19
2022-10-02T09:58:50.189Z,100880.44
2022-10-02T10:01:30.319Z,100882.03
2022-10-02T10:04:09.118Z,100888.91
2022-10-02T10:06:39.612Z,100885.97
2022-10-02T10:09:34.970Z,100889.22
2022-10-02T10:12:10.833Z,100885.50
2022-10-02T10:14:56.436Z,100887.16
2022-10-02T10:17:45.756Z,100889.75
2022-10-02T10:20:40.738Z,100895.91
2022-10-02T10:23:24.463Z,100891.34
2022-10-02T10:26:23.803Z,100894.84
2022-10-02T10:28:50.505Z,100895.63
2022-10-02T10:31:51.389Z,100896.53
2022-10-02T10:34:55.459Z,100905.31
2022-10-02T10:38:12.613Z,100912.34
2022-10-02T10:41:28.028Z,100908.66
2022-10-02T10:44:22.310Z,100907.81
2022-10-02T10:47:24.705Z,100910.41
2022-10-02T10:50:28.111Z,100910.28
2022-10-02T10:53:21.240Z,100910.19
2022-10-02T10:56:02.334Z,100905.66
2022-10-02T10:59:06.935Z,100904.78
2022-10-02T11:01:49.531Z,100902.94
2022-10-02T11:04:27.658Z,100894.00
2022-10-02T11:07:28.275Z,100892.25
2022-10-02T11:10:07.669Z,100894.72
2022-10-02T11:12:34.275Z,100885.63
2022-10-02T11:15:31.922Z,100885.44
2022-10-02T11:18:31.065Z,100878.88
2022-10-02T11:21:19.986Z,100883.94
2022-10-02T11:24:17.432Z,100883.69
2022-10-02T11:27:23.830Z,100883.47
2022-10-02T11:30:21.865Z,100896.81
2022-10-02T11:33:15.094Z,100892.38
2022-10-02T11:36:41.671Z,100907.94
2022-10-02T11:39:15.513Z,100918.38
2022-10-02T11:42:12.837Z,100921.53
2022-10-02T11:44:52.470Z,100920.16
2022-10-02T11:47:34.155Z,100917.81
2022-10-02T11:50:37.991Z,100923.44
2022-10-02T11:53:23.785Z,100921.91
2022-10-02T11:56:15.319Z,100929.22
2022-10-02T11:58:53.769Z,100927.50
2022-10-02T12:01:45.300Z,100931.06
2022-10-02T12:04:40.682Z,100922.25
2022-10-02T12:07:18.683Z,100927.69
2022-10-02T12:10:04.458Z,100933.22
2022-10-02T12:12:54.701Z,100932.53
2022-10-02T12:15:48.745Z,100935.28
2022-10-02T12:18:43.570Z,100938.03
2022-10-02T12:21:32.409Z,100937.03
2022-10-02T12:24:31.982Z,100930.66
2022-10-02T12:27:18.675Z,100934.97
2022-10-02T12:30:07.058Z,100929.38
2022-10-02T12:32:46.504Z,100925.53
2022-10-02T12:35:20.505Z,100934.16
2022-10-02T12:38:25.453Z,100941.84
2022-10-02T12:40:58.697Z,100945.28
2022-10-02T12:43:55.243Z,100947.84
2022-10-02T12:46:45.941Z,100952.22
2022-10-02T12:50:02.743Z,100958.41
2022-10-02T12:52:40.468Z,100953.06
2022-10-02T12:55:44.833Z,100947.78
2022-10-02T12:58:25.612Z,100964.81
2022-10-02T13:01:20.821Z,100953.22
2022-10-02T13:04:47.630Z,100958.69
2022-10-02T13:07:39.207Z,100960.72
2022-10-02T13:10:41.193Z,100962.53
2022-10-02T13:13:31.447Z,100963.56
2022-10-02T13:16:07.308Z,100973.34
2022-10-02T13:18:57.661Z,100965.31
2022-10-02T13:21:50.846Z,100963.56
2022-10-02T13:24:36.284Z,100962.50
2022-10-02T13:27:28.263Z,100960.63
2022-10-02T13:30:18.332Z,100963.31
2022-10-02T13:32:56.973Z,100958.78
2022-10-02T13:35:45.882Z,100958.78
2022-10-02T13:38:20.752Z,100964.16
2022-10-02T13:41:29.828Z,100966.75
2022-10-02T13:44:18.356Z,100965.72
2022-10-02T13:47:03.605Z,100964.63
2022-10-02T13:49:33.452Z,100960.00
2022-10-02T13:52:22.205Z,100954.50
2022-10-02T13:55:00.190Z,100965.97
2022-10-02T13:57:41.724Z,100959.56
2022-10-02T14:00:33.801Z,100968.50
2022-10-02T14:03:09.812Z,100964.91
2022-10-02T14:05:57.817Z,100964.91
2022-10-02T14:08:43.108Z,100963.06
2022-10-02T14:11:49.113Z,100959.44
2022-10-02T14:14:28.472Z,100963.94
2022-10-02T14:17:25.781Z,100962.97
2022-10-02T14:20:17.655Z,100962.88
2022-10-02T14:23:12.913Z,100963.63
2022-10-02T14:25:47.588Z,100970.50
2022-10-02T14:28:35.797Z,100965.66
2022-10-02T14:31:37.890Z,100961.66
2022-10-02T14:34:05.231Z,100959.66
2022-10-02T14:36:48.727Z,100959.31
2022-10-02T14:39:34.274Z,100958.25
2022-10-02T14:42:04.376Z,100959.84
2022-10-02T14:45:06.667Z,100977.19
2022-10-02T14:47:58.613Z,101025.69
2022-10-02T14:51:06.689Z,101054.47
2022-10-02T14:53:48.697Z,101048.78
2022-10-02T14:56:38.629Z,101055.03
2022-10-02T14:59:11.319Z,101047.66
2022-10-02T15:01:47.679Z,101049.97
2022-10-02T15:04:26.727Z,101051.22
2022-10-02T15:06:53.368Z,101049.81
2022-10-02T15:09:49.622Z,101051.09
2022-10-02T15:12:19.829Z,101046.88
2022-10-02T15:14:57.703Z,101055.97
2022-10-02T15:18:00.254Z,101055.19
2022-10-02T15:20:31.146Z,101061.59
2022-10-02T15:23:00.357Z,101061.66
2022-10-02T15:26:02.988Z,101056.41
2022-10-02T15:28:41.046Z,101063.63
2022-10-02T15:31:32.432Z,101059.25
2022-10-02T15:34:29.623Z,101061.16
2022-10-02T15:37:16.144Z,101067.47
2022-10-02T15:39:51.543Z,101076.44
2022-10-02T15:42:41.340Z,101067.63
2022-10-02T15:45:33.676Z,101081.88
2022-10-02T15:48:28.462Z,101073.91
2022-10-02T15:51:05.511Z,101079.25
2022-10-02T15:53:46.166Z,101079.28
2022-10-02T15:56:45.190Z,101091.75
2022-10-02T15:59:17.800Z,101096.25
2022-10-02T16:01:59.031Z,101101.59
2022-10-02T16:04:34.651Z,101110.50
2022-10-02T16:07:22.141Z,101114.09
2022-10-02T16:10:02.730Z,101117.69
2022-10-02T16:12:41.700Z,101122.16
2022-10-02T16:15:30.353Z,101118.59
2022-10-02T16:18:41.326Z,101119.50
2022-10-02T16:21:59.247Z,101111.50
2022-10-02T16:25:02.915Z,101126.66
2022-10-02T16:27:51.560Z,101132.03
2022-10-02T16:30:21.184Z,101135.59
2022-10-02T16:33:20.505Z,101139.19
2022-10-02T16:35:50.145Z,101148.09
2022-10-02T16:38:48.482Z,101162.38
2022-10-02T16:41:15.800Z,101155.31
2022-10-02T16:43:43.191Z,101162.44
2022-10-02T16:46:12.359Z,101166.94
2022-10-02T16:48:42.040Z,101167.00
2022-10-02T16:51:30.782Z,101167.94
2022-10-02T16:54:17.249Z,101168.84
2022-10-02T16:56:56.986Z,101172.44
2022-10-02T16:59:44.072Z,101179.53
2022-10-02T17:02:19.205Z,101182.19
2022-10-02T17:04:59.585Z,101194.63
2022-10-02T17:07:52.816Z,101190.16
2022-10-02T17:10:29.860Z,101189.31
2022-10-02T17:13:07.140Z,101196.38
2022-10-02T17:15:40.397Z,101200.81
2022-10-02T17:18:15.024Z,101202.56
2022-10-02T17:20:51.654Z,101200.78
2022-10-02T17:23:25.017Z,101201.69
2022-10-02T17:26:03.972Z,101216.84
2022-10-02T17:28:53.284Z,101213.34
2022-10-02T17:31:43.829Z,101224.09
2022-10-02T17:34:30.000Z,101225.94
2022-10-02T17:37:09.150Z,101232.19
2022-10-02T17:39:56.400Z,101237.59
2022-10-02T17:42:32.747Z,101239.44
2022-10-02T17:45:17.812Z,101243.94
2022-10-02T17:48:07.699Z,101256.44
2022-10-02T17:51:01.704Z,101253.81
2022-10-02T17:53:56.602Z,101255.63
2022-10-02T17:56:51.885Z,101261.88
2022-10-02T17:59:37.096Z,101271.72
2022-10-02T18:02:25.065Z,101271.75
2022-10-02T18:05:25.912Z,101273.56
2022-10-02T18:08:18.783Z,101285.13
2022-10-02T18:10:55.781Z,101302.97
2022-10-02T18:13:31.217Z,101294.97
2022-10-02T18:16:11.414Z,101297.63
2022-10-02T18:18:40.634Z,101301.19
2022-10-02T18:21:32.879Z,101309.19
2022-10-02T18:24:08.573Z,101310.97
2022-10-02T18:26:58.682Z,101315.38
2022-10-02T18:29:47.688Z,101326.94
2022-10-02T18:32:45.332Z,101329.59
2022-10-02T18:35:35.201Z,101333.16
2022-10-02T18:38:25.440Z,101331.34
2022-10-02T18:41:05.174Z,101337.56
2022-10-02T18:43:47.589Z,101341.13
2022-10-02T18:46:23.415Z,101348.22
2022-10-02T18:49:10.504Z,101333.09
2022-10-02T18:51:46.240Z,101338.41
2022-10-02T18:54:28.819Z,101345.56
2022-10-02T18:57:07.651Z,101349.16
2022-10-02T18:59:44.967Z,101357.22
2022-10-02T19:02:38.992Z,101351.03
2022-10-02T19:05:30.120Z,101358.13
2022-10-02T19:08:02.736Z,101359.94
2022-10-02T19:10:32.366Z,101363.53
2022-10-02T19:13:28.632Z,101368.91
2022-10-02T19:15:58.564Z,101368.00
2022-10-02T19:18:29.618Z,101370.72
2022-10-02T19:20:57.108Z,101368.06
2022-10-02T19:23:23.738Z,101377.00
2022-10-02T19:25:52.369Z,101383.22
2022-10-02T19:28:23.158Z,101387.69
2022-10-02T19:30:52.418Z,101382.38
2022-10-02T19:33:32.109Z,101393.06
2022-10-02T19:36:03.451Z,101395.75
2022-10-02T19:38:38.457Z,101397.50
2022-10-02T19:41:14.864Z,101399.31
2022-10-02T19:43:48.720Z,101402.00
2022-10-02T19:46:16.318Z,101407.34
2022-10-02T19:48:43.661Z,101399.38
2022-10-02T19:51:18.577Z,101399.38
2022-10-02T19:53:52.921Z,101422.47
2022-10-02T19:56:28.243Z,101414.47
2022-10-02T19:59:14.387Z,101420.72
2022-10-02T20:01:54.897Z,101423.38
2022-10-02T20:04:24.490Z,101428.72
2022-10-02T20:06:54.959Z,101431.38
2022-10-02T20:09:31.227Z,101425.19
2022-10-02T20:12:01.443Z,101438.50
2022-10-02T20:14:37.184Z,101437.66
2022-10-02T20:17:10.357Z,101436.75
2022-10-02T20:19:45.179Z,101436.78
2022-10-02T20:22:24.287Z,101439.44
2022-10-02T20:24:53.825Z,101441.22
2022-10-02T20:27:41.799Z,101444.78
2022-10-02T20:30:17.643Z,101451.88
2022-10-02T20:32:53.892Z,101450.97
2022-10-02T20:35:25.584Z,101453.63
2022-10-02T20:37:54.104Z,101456.28
2022-10-02T20:40:32.796Z,101457.22
2022-10-02T20:43:00.527Z,101458.09
2022-10-02T20:45:44.683Z,101462.53
2022-10-02T20:49:07.063Z,101467.00
2022-10-02T20:51:52.619Z,101473.19
2022-10-02T20:54:41.823Z,101480.31
2022-10-02T20:57:49.514Z,101483.88
2022-10-02T21:00:24.923Z,101482.97
2022-10-02T21:03:44.832Z,101488.31
2022-10-02T21:06:19.316Z,101497.19
2022-10-02T21:09:05.245Z,101488.31
2022-10-02T21:11:45.413Z,101497.19
2022-10-02T21:14:46.297Z,101491.88
2022-10-02T21:17:16.027Z,101491.88
2022-10-02T21:20:04.661Z,101500.78
2022-10-02T21:22:50.404Z,101496.31
2022-10-02T21:25:44.452Z,101502.53
2022-10-02T21:28:36.069Z,101503.41
2022-10-02T21:31:21.597Z,101513.16
2022-10-02T21:34:18.150Z,101511.41
2022-10-02T21:37:06.881Z,101510.50
2022-10-02T21:39:39.491Z,101512.28
2022-10-02T21:42:21.296Z,101512.31
2022-10-02T21:45:13.727Z,101522.06
2022-10-02T21:47:49.994Z,101528.25
2022-10-02T21:50:54.244Z,101529.16
2022-10-02T21:54:06.485Z,101536.25
2022-10-02T21:56:58.685Z,101538.03
2022-10-02T21:59:49.725Z,101533.59
2022-10-02T22:02:30.246Z,101538.94
2022-10-02T22:05:19.636Z,101546.91
2022-10-02T22:08:08.021Z,101543.34
2022-10-02T22:10:43.993Z,101545.13
2022-10-02T22:13:28.116Z,101546.91
2022-10-02T22:16:04.318Z,101548.69
2022-10-02T22:18:51.281Z,101553.13
2022-10-02T22:21:20.713Z,101556.69
2022-10-02T22:24:17.011Z,101559.31
2022-10-02T22:27:11.604Z,101563.75
2022-10-02T22:29:45.928Z,101563.78
2022-10-02T22:32:45.340Z,101561.97
2022-10-02T22:35:30.369Z,101569.97
2022-10-02T22:38:11.005Z,101580.59
2022-10-02T22:40:51.321Z,101577.06
2022-10-02T22:43:32.327Z,101580.59
2022-10-02T22:46:09.111Z,101581.50
2022-10-02T22:48:47.348Z,101580.63
2022-10-02T22:51:32.752Z,101588.63
2022-10-02T22:54:05.678Z,101589.47
2022-10-02T22:56:37.424Z,101596.56
2022-10-02T22:59:30.572Z,101602.81
2022-10-02T23:02:20.770Z,101597.47
2022-10-02T23:05:00.179Z,101610.78
2022-10-02T23:07:31.023Z,101606.34
2022-10-02T23:10:01.896Z,101614.34
2022-10-02T23:12:52.540Z,101608.13
2022-10-02T23:15:51.594Z,101609.91
2022-10-02T23:18:39.659Z,101605.50
2022-10-02T23:21:25.091Z,101606.34
2022-10-02T23:24:12.985Z,101605.47
2022-10-02T23:26:46.953Z,101601.03
2022-10-02T23:29:25.860Z,101596.59
2022-10-02T23:31:59.278Z,101597.50
2022-10-02T23:34:37.555Z,101601.03
2022-10-02T23:37:23.893Z,101612.59
2022-10-02T23:40:04.073Z,101611.69
2022-10-02T23:42:45.576Z,101604.59
2022-10-02T23:45:26.819Z,101608.13
2022-10-02T23:47:58.653Z,101610.81
2022-10-02T23:50:33.716Z,101605.47
2022-10-02T23:53:18.312Z,101612.56
2022-10-02T23:56:00.310Z,101625.00
2022-10-02T23:58:39.965Z,101611.66
